createdAt,value
2019-04-25T00:03:32.598Z,11.17
2019-04-25T00:08:34.582Z,14.07
2019-04-25T00:13:37.911Z,13.13
2019-04-25T00:18:41.933Z,13.88
2019-04-25T00:23:45.771Z,14.45
2019-04-25T00:28:47.740Z,10.25
2019-04-25T00:33:49.691Z,18.60
2019-04-25T00:38:52.308Z,13.28
2019-04-25T00:43:55.299Z,10.75
2019-04-25T00:48:57.327Z,13.93
2019-04-25T00:53:59.191Z,15.37
2019-04-25T00:59:02.818Z,16.12
2019-04-25T01:04:05.142Z,8.70
2019-04-25T01:09:08.975Z,13.93
2019-04-25T01:14:11.965Z,13.35
2019-04-25T01:19:14.023Z,12.47
2019-04-25T01:24:16.105Z,12.83
2019-04-25T01:29:17.899Z,16.93
2019-04-25T01:34:21.556Z,13.95
2019-04-25T01:39:37.471Z,14.93
2019-04-25T01:44:41.195Z,16.67
2019-04-25T01:49:43.929Z,11.43
2019-04-25T01:54:45.919Z,17.35
2019-04-25T01:59:47.717Z,14.63
2019-04-25T02:04:49.639Z,11.22
2019-04-25T02:09:52.281Z,22.58
2019-04-25T02:14:55.990Z,13.50
2019-04-25T02:19:59.750Z,10.85
2019-04-25T02:25:04.357Z,12.93
2019-04-25T02:30:07.187Z,14.70
2019-04-25T02:35:09.974Z,14.25
2019-04-25T02:45:19.282Z,16.37
2019-04-25T02:50:25.858Z,9.65
2019-04-25T02:55:31.783Z,14.87
2019-04-25T03:00:49.269Z,20.50
2019-04-25T03:05:35.832Z,10.18
2019-04-25T03:10:37.819Z,11.60
2019-04-25T03:15:39.762Z,13.48
2019-04-25T03:20:49.786Z,15.00
2019-04-25T03:25:51.626Z,11.28
2019-04-25T03:30:54.931Z,17.02
2019-04-25T03:35:57.265Z,15.38
2019-04-25T03:40:59.195Z,11.55
2019-04-25T03:46:02.495Z,11.93
2019-04-25T03:51:05.742Z,11.68
2019-04-25T03:56:08.739Z,16.67
2019-04-25T04:01:11.010Z,59.10
2019-04-25T04:06:14.584Z,23.22
2019-04-25T04:11:16.807Z,13.68
2019-04-25T04:16:20.457Z,14.38
2019-04-25T04:21:40.587Z,12.95
2019-04-25T04:26:44.351Z,14.30
2019-04-25T04:31:46.294Z,19.05
2019-04-25T04:36:48.216Z,17.47
2019-04-25T04:41:50.088Z,17.52
2019-04-25T04:46:53.449Z,26.33
2019-04-25T04:51:55.737Z,24.72
2019-04-25T04:56:57.577Z,21.00
2019-04-25T05:02:10.688Z,12.17
2019-04-25T05:07:25.376Z,21.20
2019-04-25T05:12:27.463Z,21.82
2019-04-25T05:17:29.264Z,25.72
2019-04-25T05:22:31.143Z,39.25
2019-04-25T05:27:46.393Z,19.45
2019-04-25T05:32:36.814Z,20.23
2019-04-25T05:37:38.704Z,32.27
2019-04-25T05:42:54.561Z,37.37
2019-04-25T05:47:56.382Z,29.57
2019-04-25T05:52:58.315Z,22.13
2019-04-25T05:58:00.107Z,18.60
2019-04-25T06:03:03.441Z,12.57
2019-04-25T06:08:05.720Z,21.87
2019-04-25T06:13:13.831Z,18.03
2019-04-25T06:18:27.731Z,14.83
2019-04-25T06:23:48.317Z,11.63
2019-04-25T06:28:57.110Z,13.95
2019-04-25T06:33:54.108Z,21.97
2019-04-25T06:38:56.115Z,17.02
2019-04-25T06:43:59.835Z,13.30
2019-04-25T06:49:09.641Z,9.25
2019-04-25T06:54:13.441Z,11.65
2019-04-25T06:59:15.420Z,13.88
2019-04-25T07:04:17.315Z,25.27
2019-04-25T07:09:19.177Z,18.07
2019-04-25T07:14:21.074Z,8.38
2019-04-25T07:19:25.636Z,5.60
2019-04-25T07:24:27.271Z,10.15
2019-04-25T07:29:34.672Z,16.75
2019-04-25T07:34:37.540Z,11.57
2019-04-25T07:39:39.464Z,15.70
2019-04-25T07:44:49.970Z,9.80
2019-04-25T07:49:45.337Z,12.25
2019-04-25T07:54:47.231Z,11.17
2019-04-25T07:59:51.603Z,20.17
2019-04-25T08:04:54.153Z,19.25
2019-04-25T08:09:56.632Z,18.95
2019-04-25T08:15:00.342Z,20.43
2019-04-25T08:20:05.713Z,21.40
2019-04-25T08:25:08.359Z,26.48
2019-04-25T08:30:10.321Z,19.73
2019-04-25T08:35:13.881Z,25.15
2019-04-25T08:40:16.873Z,23.67
2019-04-25T08:45:19.611Z,30.45
2019-04-25T08:50:31.119Z,19.20
2019-04-25T08:55:41.817Z,17.87
2019-04-25T09:00:57.855Z,31.02
2019-04-25T09:05:50.463Z,31.30
2019-04-25T09:10:53.476Z,31.62
2019-04-25T09:15:55.487Z,23.52
2019-04-25T09:20:58.549Z,25.15
2019-04-25T09:26:00.468Z,28.05
2019-04-25T09:31:03.838Z,30.52
2019-04-25T09:36:06.925Z,25.82
2019-04-25T09:41:08.869Z,21.23
2019-04-25T09:46:21.420Z,29.30
2019-04-25T09:56:38.294Z,27.35
2019-04-25T10:01:43.959Z,29.02
2019-04-25T10:06:47.622Z,46.88
2019-04-25T10:11:50.203Z,30.05
2019-04-25T10:16:53.808Z,31.25
2019-04-25T10:21:55.862Z,38.05
2019-04-25T10:26:59.167Z,31.00
2019-04-25T10:32:01.046Z,31.90
2019-04-25T10:37:04.493Z,35.90
2019-04-25T10:42:06.384Z,29.98
2019-04-25T10:47:08.431Z,33.20
2019-04-25T10:52:10.602Z,39.48
2019-04-25T10:57:13.128Z,31.97
2019-04-25T11:02:15.441Z,36.42
2019-04-25T11:07:19.074Z,45.98
2019-04-25T11:12:21.137Z,35.92
2019-04-25T11:17:24.220Z,38.75
2019-04-25T11:22:26.463Z,60.03
2019-04-25T11:27:28.518Z,50.12
2019-04-25T11:37:32.221Z,45.13
2019-04-25T11:42:34.203Z,47.43
2019-04-25T11:47:36.045Z,59.83
2019-04-25T11:52:38.121Z,65.35
2019-04-25T11:57:39.959Z,62.40
2019-04-25T12:02:41.884Z,59.83
2019-04-25T12:07:45.357Z,61.05
2019-04-25T12:12:47.759Z,57.55
2019-04-25T12:17:49.649Z,84.10
2019-04-25T12:23:03.474Z,64.10
2019-04-25T12:27:55.323Z,48.58
2019-04-25T12:32:57.249Z,66.65
2019-04-25T12:37:59.257Z,55.20
2019-04-25T12:43:03.112Z,58.35
2019-04-25T12:48:11.105Z,59.33
2019-04-25T12:53:13.957Z,57.15
2019-04-25T12:58:17.290Z,57.62
2019-04-25T13:03:19.690Z,49.70
2019-04-25T13:08:21.902Z,38.60
2019-04-25T13:18:26.455Z,28.30
2019-04-25T13:23:31.927Z,20.40
2019-04-25T13:28:35.547Z,23.05
2019-04-25T13:33:39.341Z,22.48
2019-04-25T13:38:41.682Z,24.10
2019-04-25T13:48:47.516Z,26.17
2019-04-25T13:53:49.523Z,20.05
2019-04-25T13:58:51.536Z,24.67
2019-04-25T14:03:54.313Z,25.80
2019-04-25T14:08:56.607Z,21.75
2019-04-25T14:13:58.625Z,24.63
2019-04-25T14:19:02.473Z,28.52
2019-04-25T14:24:06.157Z,23.70
2019-04-25T14:29:08.136Z,25.62
2019-04-25T14:34:10.025Z,23.35
2019-04-25T14:39:12.715Z,22.45
2019-04-25T14:44:14.766Z,21.27
2019-04-25T14:49:16.787Z,21.48
2019-04-25T14:54:20.572Z,24.07
2019-04-25T14:59:23.585Z,22.15
2019-04-25T15:04:26.440Z,28.57
2019-04-25T15:09:28.844Z,37.50
2019-04-25T15:14:31.391Z,34.78
2019-04-25T15:19:34.013Z,19.73
2019-04-25T15:24:36.201Z,18.73
2019-04-25T15:29:38.329Z,23.45
2019-04-25T15:34:42.497Z,23.50
2019-04-25T15:39:46.303Z,17.30
2019-04-25T15:44:58.991Z,18.73
2019-04-25T15:50:01.021Z,16.52
2019-04-25T15:55:07.259Z,20.65
2019-04-25T16:00:10.931Z,26.37
2019-04-25T16:05:13.088Z,22.80
2019-04-25T16:10:15.766Z,22.98
2019-04-25T16:20:20.102Z,22.30
2019-04-25T16:25:22.294Z,23.70
2019-04-25T16:30:26.134Z,23.60
2019-04-25T16:35:28.607Z,18.30
2019-04-25T16:40:31.935Z,21.75
2019-04-25T16:45:36.049Z,35.68
2019-04-25T16:50:38.057Z,33.25
2019-04-25T16:55:40.932Z,41.13
2019-04-25T17:00:47.593Z,18.35
2019-04-25T17:05:49.775Z,20.48
2019-04-25T17:10:51.603Z,25.80
2019-04-25T17:15:58.085Z,20.13
2019-04-25T17:21:03.003Z,32.63
2019-04-25T17:26:05.882Z,28.92
2019-04-25T17:31:26.176Z,31.75
2019-04-25T17:36:34.598Z,38.45
2019-04-25T17:41:38.362Z,111.52
2019-04-25T17:46:40.666Z,36.35
2019-04-25T17:51:45.368Z,31.55
2019-04-25T17:56:48.818Z,31.23
2019-04-25T18:01:52.320Z,39.53
2019-04-25T18:06:55.684Z,32.48
2019-04-25T18:11:57.610Z,34.55
2019-04-25T18:16:59.589Z,28.10
2019-04-25T18:22:03.399Z,47.45
2019-04-25T18:27:07.204Z,31.82
2019-04-25T18:32:10.406Z,44.53
2019-04-25T18:37:14.205Z,32.38
2019-04-25T18:42:17.989Z,31.93
2019-04-25T18:47:20.018Z,22.70
2019-04-25T18:52:33.041Z,21.20
2019-04-25T18:57:37.496Z,22.58
2019-04-25T19:02:57.884Z,22.85
2019-04-25T19:07:59.958Z,21.42
2019-04-25T19:13:12.013Z,20.70
2019-04-25T19:18:06.003Z,23.07
2019-04-25T19:23:08.641Z,18.45
2019-04-25T19:28:10.752Z,17.30
2019-04-25T19:33:14.514Z,21.75
2019-04-25T19:38:17.034Z,24.27
2019-04-25T19:43:23.720Z,16.67
2019-04-25T19:48:25.749Z,24.67
2019-04-25T19:53:27.655Z,19.53
2019-04-25T19:58:30.191Z,18.00
2019-04-25T20:03:34.235Z,23.32
2019-04-25T20:08:38.236Z,23.50
2019-04-25T20:13:40.218Z,19.98
2019-04-25T20:18:43.184Z,25.63
2019-04-25T20:23:46.488Z,31.97
2019-04-25T20:28:48.484Z,20.32
2019-04-25T20:34:01.605Z,25.60
2019-04-25T20:38:55.251Z,23.22
2019-04-25T20:43:57.384Z,22.98
2019-04-25T20:49:00.147Z,23.60
2019-04-25T20:59:03.941Z,26.52
2019-04-25T21:04:13.240Z,24.87
2019-04-25T21:09:12.647Z,28.12
2019-04-25T21:14:20.942Z,18.17
2019-04-25T21:19:30.661Z,28.90
2019-04-25T21:24:32.625Z,49.55
2019-04-25T21:29:34.650Z,22.25
2019-04-25T21:34:36.573Z,23.40
2019-04-25T21:39:40.822Z,25.97
2019-04-25T21:44:45.056Z,25.85
2019-04-25T21:49:46.926Z,26.77
2019-04-25T21:54:48.806Z,25.57
2019-04-25T22:00:00.520Z,21.95
2019-04-25T22:04:56.666Z,27.98
2019-04-25T22:09:59.461Z,28.87
2019-04-25T22:15:01.640Z,22.00
2019-04-25T22:20:05.351Z,28.90
2019-04-25T22:30:11.680Z,23.90
2019-04-25T22:35:18.273Z,20.35
2019-04-25T22:40:20.120Z,23.90
2019-04-25T22:45:22.035Z,26.62
2019-04-25T22:50:24.528Z,21.40
2019-04-25T22:55:26.395Z,23.87
2019-04-25T23:00:30.102Z,25.63
2019-04-25T23:05:33.991Z,26.73
2019-04-25T23:10:36.202Z,26.00
2019-04-25T23:15:37.996Z,26.07
2019-04-25T23:20:40.139Z,27.63
2019-04-25T23:26:00.874Z,31.65
2019-04-25T23:31:10.751Z,20.40
2019-04-25T23:36:13.222Z,24.35
2019-04-25T23:41:15.648Z,20.17
2019-04-25T23:46:17.568Z,20.30
2019-04-25T23:51:19.467Z,32.13
2019-04-25T23:56:21.927Z,20.05
